Time;durP1;ratioP1;P1;durP2;ratioP2;P2;SDS_P1;SDS_P2;PMS_P1;PMS_P2;Temp;Humidity;BMP_temperature;BMP_pressure;BME280_temperature;BME280_humidity;BME280_pressure;Samples;Min_cycle;Max_cycle;Signal;HPM_P1;HPM_P2
2022/03/09 00:00:20;;;;;;;9.03;6.83;;;2.40;99.90;;;;;;5070643;28;20203;-86
2022/03/09 00:02:46;;;;;;;10.83;7.80;;;2.40;99.90;;;;;;5070856;28;20183;-84
2022/03/09 00:05:11;;;;;;;12.13;7.30;;;2.40;99.90;;;;;;5070300;28;20200;-84
2022/03/09 00:07:37;;;;;;;12.27;7.33;;;2.40;99.90;;;;;;5069853;28;20267;-82
2022/03/09 00:10:04;;;;;;;13.23;8.70;;;2.40;99.90;;;;;;5070533;28;20175;-84
2022/03/09 00:12:30;;;;;;;12.03;7.37;;;2.40;99.90;;;;;;5070305;28;20186;-84
2022/03/09 00:14:56;;;;;;;16.37;8.03;;;2.40;99.90;;;;;;5070101;28;20516;-84
2022/03/09 00:17:22;;;;;;;13.63;7.50;;;2.40;99.90;;;;;;5069939;28;20963;-85
2022/03/09 00:19:47;;;;;;;9.90;6.10;;;2.40;99.90;;;;;;5070303;28;20506;-84
2022/03/09 00:22:13;;;;;;;13.70;7.37;;;2.50;99.90;;;;;;5073889;28;20646;-84
2022/03/09 00:24:39;;;;;;;10.03;5.93;;;2.50;99.90;;;;;;5074932;28;20618;-84
2022/03/09 00:27:04;;;;;;;7.83;5.67;;;2.60;99.90;;;;;;5073420;28;20191;-84
2022/03/09 00:29:30;;;;;;;12.50;6.20;;;2.60;99.90;;;;;;5073558;28;20187;-84
2022/03/09 00:31:56;;;;;;;13.63;6.43;;;2.70;99.90;;;;;;5074935;28;20555;-85
2022/03/09 00:34:21;;;;;;;11.23;6.07;;;2.70;99.90;;;;;;5073438;28;20231;-84
2022/03/09 00:36:47;;;;;;;12.60;7.20;;;2.80;99.90;;;;;;5073210;28;20176;-84
2022/03/09 00:39:12;;;;;;;10.97;5.90;;;2.80;99.90;;;;;;5073604;28;20204;-84
2022/03/09 00:41:38;;;;;;;12.47;6.40;;;2.80;99.90;;;;;;5073547;28;20187;-84
2022/03/09 00:44:04;;;;;;;10.40;7.07;;;2.80;99.90;;;;;;5073571;28;20201;-85
2022/03/09 00:46:30;;;;;;;13.73;7.10;;;2.80;99.90;;;;;;5073104;28;20253;-84
2022/03/09 00:48:56;;;;;;;15.93;7.17;;;2.80;99.90;;;;;;5073232;28;20423;-85
2022/03/09 00:51:22;;;;;;;9.13;7.23;;;2.80;99.90;;;;;;5073168;28;20418;-84
2022/03/09 00:53:47;;;;;;;16.63;7.90;;;2.80;99.90;;;;;;5074495;28;20203;-84
2022/03/09 00:56:14;;;;;;;13.93;6.70;;;2.60;99.90;;;;;;5072967;28;20958;-84
2022/03/09 00:58:40;;;;;;;10.20;6.40;;;2.60;99.90;;;;;;5072898;28;20204;-84
2022/03/09 01:01:06;;;;;;;10.70;6.90;;;2.60;99.90;;;;;;5073038;28;20419;-84
2022/03/09 01:03:33;;;;;;;9.10;6.60;;;2.50;99.90;;;;;;5073167;28;20440;-84
2022/03/09 01:05:59;;;;;;;9.00;6.27;;;2.50;99.90;;;;;;5072938;28;20181;-83
2022/03/09 01:08:24;;;;;;;11.07;6.90;;;2.40;99.90;;;;;;5072742;28;20566;-84
2022/03/09 01:10:50;;;;;;;7.80;5.33;;;2.40;99.90;;;;;;5073037;28;20217;-85
2022/03/09 01:13:16;;;;;;;10.77;6.80;;;2.40;99.90;;;;;;5072771;28;20186;-84
2022/03/09 01:15:42;;;;;;;10.20;7.60;;;2.30;99.90;;;;;;5072836;28;20421;-84
2022/03/09 01:18:07;;;;;;;13.07;6.80;;;2.30;99.90;;;;;;5073548;28;20469;-85
2022/03/09 01:20:34;;;;;;;8.83;6.50;;;2.30;99.90;;;;;;5072812;28;20177;-84
2022/03/09 01:22:59;;;;;;;11.60;7.37;;;2.20;99.90;;;;;;5072598;28;20188;-84
2022/03/09 01:25:25;;;;;;;10.07;6.33;;;2.20;99.90;;;;;;5072647;28;20437;-83
2022/03/09 01:27:51;;;;;;;11.60;6.10;;;2.20;99.90;;;;;;5072322;28;20244;-84
2022/03/09 01:30:16;;;;;;;9.97;7.13;;;2.20;99.90;;;;;;5073892;28;20200;-86
2022/03/09 01:32:42;;;;;;;10.10;6.10;;;2.20;99.90;;;;;;5072407;28;20191;-84
2022/03/09 01:35:08;;;;;;;7.50;5.07;;;2.20;99.90;;;;;;5072040;28;20250;-83
2022/03/09 01:37:33;;;;;;;11.60;6.13;;;2.30;99.90;;;;;;5071998;28;20180;-84
2022/03/09 01:39:59;;;;;;;8.83;6.00;;;2.20;99.90;;;;;;5073619;28;20179;-85
2022/03/09 01:42:25;;;;;;;9.13;5.87;;;2.30;99.90;;;;;;5072386;28;20183;-84
2022/03/09 01:44:50;;;;;;;10.93;6.60;;;2.40;99.90;;;;;;5072041;28;20698;-83
2022/03/09 01:47:16;;;;;;;8.93;5.80;;;2.40;99.90;;;;;;5071944;28;20181;-82
2022/03/09 01:49:42;;;;;;;8.80;6.33;;;2.40;99.90;;;;;;5072050;28;20202;-84
2022/03/09 01:52:08;;;;;;;12.77;6.40;;;2.40;99.90;;;;;;5072214;28;20217;-84
2022/03/09 01:54:34;;;;;;;9.30;5.53;;;2.50;99.90;;;;;;5073285;28;20431;-85
2022/03/09 01:57:00;;;;;;;18.43;6.93;;;2.40;99.90;;;;;;5071491;28;20421;-84
2022/03/09 01:59:26;;;;;;;9.47;6.53;;;2.40;99.90;;;;;;5071850;28;20462;-84
2022/03/09 02:01:52;;;;;;;8.70;5.90;;;2.30;99.90;;;;;;5071845;28;20414;-84
2022/03/09 02:04:18;;;;;;;11.10;6.70;;;2.30;99.90;;;;;;5071844;28;20865;-84
2022/03/09 02:06:44;;;;;;;11.20;6.50;;;2.30;99.90;;;;;;5071618;28;20346;-84
2022/03/09 02:11:56;;;;;;;8.70;5.50;;;2.40;99.90;;;;;;5073193;28;20434;-84
2022/03/09 02:14:36;;;;;;;9.17;5.73;;;2.40;99.90;;;;;;5071534;28;20528;-84
2022/03/09 02:17:05;;;;;;;13.27;5.93;;;2.30;99.90;;;;;;5072446;28;20395;-84
2022/03/09 02:19:30;;;;;;;8.67;5.80;;;2.30;99.90;;;;;;5072658;28;20447;-84
2022/03/09 02:22:07;;;;;;;7.70;5.43;;;2.30;99.90;;;;;;5071306;28;20470;-85
2022/03/09 02:24:33;;;;;;;9.33;5.77;;;2.30;99.90;;;;;;5072773;28;20564;-85
2022/03/09 02:26:59;;;;;;;8.10;5.30;;;2.20;99.90;;;;;;5071006;28;20418;-83
2022/03/09 02:29:24;;;;;;;9.60;5.97;;;2.20;99.90;;;;;;5072883;28;20921;-84
2022/03/09 02:31:50;;;;;;;9.37;6.67;;;2.20;99.90;;;;;;5072757;28;20222;-84
2022/03/09 02:34:16;;;;;;;10.60;5.73;;;2.00;99.90;;;;;;5070901;28;20226;-84
2022/03/09 02:36:41;;;;;;;12.40;6.50;;;2.00;99.90;;;;;;5070899;28;20219;-83
2022/03/09 02:39:07;;;;;;;9.40;6.10;;;1.90;99.90;;;;;;5071192;28;20302;-84
2022/03/09 02:41:33;;;;;;;9.07;5.90;;;1.90;99.90;;;;;;5071220;28;20179;-85
2022/03/09 02:44:03;;;;;;;8.60;5.37;;;1.90;99.90;;;;;;5071699;28;20199;-84
2022/03/09 02:46:29;;;;;;;10.83;5.90;;;2.00;99.90;;;;;;5071984;28;20460;-84
2022/03/09 02:48:55;;;;;;;9.60;6.63;;;2.00;99.90;;;;;;5071185;28;20425;-84
2022/03/09 02:51:21;;;;;;;10.80;6.90;;;1.90;99.90;;;;;;5071204;28;20182;-85
2022/03/09 02:53:48;;;;;;;8.50;5.90;;;1.90;99.90;;;;;;5071167;28;20472;-84
2022/03/09 02:56:14;;;;;;;11.13;6.67;;;1.90;99.90;;;;;;5070944;28;20202;-83
2022/03/09 02:58:40;;;;;;;9.60;6.97;;;1.90;99.90;;;;;;5072095;28;20556;-83
2022/03/09 03:01:05;;;;;;;8.93;7.20;;;1.90;99.90;;;;;;5071035;28;20472;-85
2022/03/09 03:03:31;;;;;;;10.37;6.37;;;1.80;99.90;;;;;;5072122;28;20257;-85
2022/03/09 03:05:56;;;;;;;8.83;6.07;;;1.80;99.90;;;;;;5070791;28;20182;-84
2022/03/09 03:08:22;;;;;;;9.80;6.70;;;1.80;99.90;;;;;;5070689;28;20187;-84
2022/03/09 03:10:47;;;;;;;10.03;6.80;;;1.80;99.90;;;;;;5070783;28;20214;-84
2022/03/09 03:13:13;;;;;;;10.80;6.70;;;1.70;99.90;;;;;;5070787;28;20179;-84
2022/03/09 03:15:38;;;;;;;10.20;7.23;;;1.70;99.90;;;;;;5070585;28;20237;-84
2022/03/09 03:18:05;;;;;;;9.07;6.30;;;1.60;99.90;;;;;;5070475;28;20207;-84
2022/03/09 03:20:31;;;;;;;11.20;6.73;;;1.60;99.90;;;;;;5071971;28;20228;-84
2022/03/09 03:22:56;;;;;;;11.40;6.77;;;1.60;99.90;;;;;;5070999;28;20421;-85
2022/03/09 03:25:22;;;;;;;13.07;7.40;;;1.60;99.90;;;;;;5070747;28;20202;-84
2022/03/09 03:27:47;;;;;;;9.37;6.03;;;1.50;99.90;;;;;;5071538;28;20186;-84
2022/03/09 03:30:13;;;;;;;9.60;5.70;;;1.50;99.90;;;;;;5070714;28;20189;-84
2022/03/09 03:32:38;;;;;;;11.80;7.17;;;1.50;99.90;;;;;;5070639;28;20232;-84
2022/03/09 03:35:04;;;;;;;15.60;7.30;;;1.40;99.90;;;;;;5071334;28;20606;-82
2022/03/09 03:37:30;;;;;;;13.20;6.33;;;1.40;99.90;;;;;;5071983;28;20547;-82
2022/03/09 03:39:56;;;;;;;11.37;6.30;;;1.40;99.90;;;;;;5072368;28;20470;-82
2022/03/09 03:42:22;;;;;;;10.97;6.30;;;1.50;99.90;;;;;;5071150;28;20604;-82
2022/03/09 03:44:48;;;;;;;9.20;5.70;;;1.50;99.90;;;;;;5070935;28;20210;-82
2022/03/09 03:47:13;;;;;;;9.33;6.20;;;1.60;99.90;;;;;;5072064;28;20422;-82
2022/03/09 03:49:39;;;;;;;10.00;6.00;;;1.60;99.90;;;;;;5072329;28;20226;-82
2022/03/09 03:52:05;;;;;;;11.40;6.47;;;1.50;99.90;;;;;;5071297;28;20193;-82
2022/03/09 03:54:30;;;;;;;10.70;6.57;;;1.50;99.90;;;;;;5072068;28;20237;-82
2022/03/09 03:56:56;;;;;;;10.60;7.00;;;1.50;99.90;;;;;;5075910;28;20809;-82
2022/03/09 03:59:21;;;;;;;9.87;6.30;;;1.40;99.90;;;;;;5074824;28;20573;-82
2022/03/09 04:01:47;;;;;;;12.53;6.73;;;1.50;99.90;;;;;;5074884;28;20661;-82
2022/03/09 04:04:13;;;;;;;13.83;7.87;;;1.50;99.90;;;;;;5074568;28;20206;-82
2022/03/09 04:06:38;;;;;;;11.63;7.00;;;1.50;99.90;;;;;;5075710;28;20190;-82
2022/03/09 04:09:04;;;;;;;14.77;7.57;;;1.50;99.90;;;;;;5074606;28;20429;-82
2022/03/09 04:11:29;;;;;;;10.20;6.77;;;1.50;99.90;;;;;;5074680;28;20335;-82
2022/03/09 04:13:55;;;;;;;9.37;5.90;;;1.40;99.90;;;;;;5074314;28;20214;-82
2022/03/09 04:16:20;;;;;;;9.93;6.13;;;1.40;99.90;;;;;;5074427;28;20183;-83
2022/03/09 04:18:46;;;;;;;8.40;5.97;;;1.40;99.90;;;;;;5074315;28;20294;-82
2022/03/09 04:21:12;;;;;;;11.03;7.17;;;1.50;99.90;;;;;;5074312;28;20198;-82
2022/03/09 04:23:37;;;;;;;10.17;6.57;;;1.50;99.90;;;;;;5074413;28;20256;-82
2022/03/09 04:26:06;;;;;;;11.20;6.63;;;1.50;99.90;;;;;;5074135;28;20231;-82
2022/03/09 04:28:32;;;;;;;7.50;4.60;;;1.40;99.90;;;;;;5073947;28;20187;-82
2022/03/09 04:30:58;;;;;;;11.77;6.23;;;1.50;99.90;;;;;;5075344;28;20496;-82
2022/03/09 04:33:23;;;;;;;8.17;5.57;;;1.50;99.90;;;;;;5073853;28;20452;-82
2022/03/09 04:35:49;;;;;;;8.13;5.80;;;1.50;99.90;;;;;;5074030;28;20171;-82
2022/03/09 04:38:14;;;;;;;9.60;6.20;;;1.50;99.90;;;;;;5073601;28;20203;-82
2022/03/09 04:40:40;;;;;;;11.27;6.20;;;1.40;99.90;;;;;;5074115;28;20269;-82
2022/03/09 04:43:06;;;;;;;8.13;5.90;;;1.40;99.90;;;;;;5075023;28;20171;-82
2022/03/09 04:45:32;;;;;;;9.90;5.97;;;1.40;99.90;;;;;;5074932;28;20173;-82
2022/03/09 04:47:58;;;;;;;7.23;5.33;;;1.40;99.90;;;;;;5073511;28;20417;-82
2022/03/09 04:50:23;;;;;;;8.60;5.30;;;1.40;99.90;;;;;;5073754;28;20190;-82
2022/03/09 04:52:49;;;;;;;10.47;6.23;;;1.40;99.90;;;;;;5073658;28;20646;-82
2022/03/09 04:55:15;;;;;;;11.57;5.80;;;1.40;99.90;;;;;;5073597;28;20228;-82
2022/03/09 04:57:40;;;;;;;9.20;5.90;;;1.40;99.90;;;;;;5073347;28;20190;-82
2022/03/09 05:00:07;;;;;;;8.80;5.87;;;1.30;99.90;;;;;;5073490;28;20183;-82
2022/03/09 05:02:32;;;;;;;12.43;5.10;;;1.30;99.90;;;;;;5075020;28;20182;-82
2022/03/09 05:04:58;;;;;;;8.80;5.70;;;1.30;99.90;;;;;;5073580;28;20445;-82
2022/03/09 05:07:24;;;;;;;8.43;5.50;;;1.30;99.90;;;;;;5072756;28;20205;-82
2022/03/09 05:09:49;;;;;;;8.33;5.17;;;1.20;99.90;;;;;;5073868;28;20232;-82
2022/03/09 05:12:15;;;;;;;7.03;5.50;;;1.20;99.90;;;;;;5074436;28;20183;-82
2022/03/09 05:14:40;;;;;;;7.70;5.90;;;1.20;99.90;;;;;;5073977;28;20202;-82
2022/03/09 05:17:06;;;;;;;10.43;6.27;;;1.20;99.90;;;;;;5073450;28;20221;-82
2022/03/09 05:19:32;;;;;;;10.80;5.33;;;1.20;99.90;;;;;;5073344;28;20204;-82
2022/03/09 05:21:57;;;;;;;9.57;6.07;;;1.30;99.90;;;;;;5074438;28;20175;-82
2022/03/09 05:24:23;;;;;;;6.90;5.20;;;1.30;99.90;;;;;;5073065;28;20206;-83
2022/03/09 05:26:48;;;;;;;7.47;5.47;;;1.30;99.90;;;;;;5073263;28;20183;-82
2022/03/09 05:29:15;;;;;;;8.53;5.10;;;1.40;99.90;;;;;;5074365;28;20180;-83
2022/03/09 05:31:41;;;;;;;9.60;6.27;;;1.30;99.90;;;;;;5074399;28;20181;-82
2022/03/09 05:34:07;;;;;;;10.07;6.07;;;1.20;99.90;;;;;;5073098;28;20693;-82
2022/03/09 05:36:33;;;;;;;9.77;6.10;;;1.10;99.90;;;;;;5072743;28;20425;-82
2022/03/09 05:38:58;;;;;;;10.70;6.37;;;1.10;99.90;;;;;;5073006;28;20209;-83
2022/03/09 05:41:24;;;;;;;15.10;5.73;;;1.00;99.90;;;;;;5073080;28;20188;-82
2022/03/09 05:43:50;;;;;;;11.70;7.17;;;0.90;99.90;;;;;;5072838;28;20201;-82
2022/03/09 05:46:16;;;;;;;8.70;5.77;;;0.90;99.90;;;;;;5072796;28;20227;-82
2022/03/09 05:48:42;;;;;;;9.93;6.37;;;0.90;99.90;;;;;;5072864;28;20430;-82
2022/03/09 05:51:07;;;;;;;7.77;5.37;;;0.90;99.90;;;;;;5073110;28;20436;-82
2022/03/09 05:53:33;;;;;;;10.10;5.93;;;0.90;99.90;;;;;;5072812;28;20452;-82
2022/03/09 05:55:59;;;;;;;9.87;6.13;;;0.80;99.90;;;;;;5072662;28;20193;-82
2022/03/09 05:58:24;;;;;;;12.30;6.23;;;0.90;99.90;;;;;;5072434;28;20877;-82
2022/03/09 06:00:50;;;;;;;11.47;7.00;;;0.70;99.90;;;;;;5072810;28;20512;-82
2022/03/09 06:03:15;;;;;;;9.53;5.67;;;0.70;99.90;;;;;;5073818;28;20184;-82
2022/03/09 06:05:41;;;;;;;10.83;7.13;;;0.60;99.90;;;;;;5072399;28;20545;-83
2022/03/09 06:08:07;;;;;;;11.57;7.80;;;0.70;99.90;;;;;;5073668;28;20644;-82
2022/03/09 06:10:33;;;;;;;8.07;5.37;;;0.70;99.90;;;;;;5072493;28;20183;-84
2022/03/09 06:12:58;;;;;;;9.77;5.60;;;0.80;99.90;;;;;;5071606;28;20546;-84
2022/03/09 06:15:24;;;;;;;8.30;5.37;;;0.80;99.90;;;;;;5071536;28;20214;-84
2022/03/09 06:17:51;;;;;;;11.03;5.47;;;0.90;99.90;;;;;;5070297;28;20182;-84
2022/03/09 06:20:18;;;;;;;9.03;4.87;;;0.80;99.90;;;;;;5071525;28;20646;-84
2022/03/09 06:22:44;;;;;;;11.23;6.00;;;0.90;99.90;;;;;;5071602;28;20763;-84
2022/03/09 06:25:10;;;;;;;9.00;4.80;;;0.90;99.90;;;;;;5071267;28;20452;-83
2022/03/09 06:27:43;;;;;;;14.77;7.43;;;1.00;99.90;;;;;;5071125;28;20420;-83
2022/03/09 06:30:10;;;;;;;8.97;5.33;;;1.00;99.90;;;;;;5072554;28;20408;-84
2022/03/09 06:32:36;;;;;;;9.00;4.93;;;1.10;99.90;;;;;;5071342;28;20425;-85
2022/03/09 06:35:03;;;;;;;8.90;4.97;;;1.20;99.90;;;;;;5072296;28;20908;-84
2022/03/09 06:37:29;;;;;;;8.03;5.13;;;1.40;99.90;;;;;;5070735;28;20421;-85
2022/03/09 06:39:57;;;;;;;7.93;4.87;;;1.50;99.90;;;;;;5071153;28;20464;-83
2022/03/09 06:42:24;;;;;;;7.70;5.27;;;1.60;99.90;;;;;;5072438;28;20203;-85
2022/03/09 06:44:49;;;;;;;6.20;4.73;;;1.80;99.90;;;;;;5070970;28;20440;-84
2022/03/09 06:47:15;;;;;;;12.33;5.03;;;1.90;99.90;;;;;;5070844;28;20425;-84
2022/03/09 06:49:41;;;;;;;7.30;5.23;;;2.00;99.90;;;;;;5071113;28;20255;-84
2022/03/09 06:52:07;;;;;;;9.27;6.47;;;2.10;99.90;;;;;;5071117;28;20184;-83
2022/03/09 06:54:32;;;;;;;7.83;5.27;;;2.20;99.90;;;;;;5072146;28;20200;-83
2022/03/09 06:56:58;;;;;;;11.03;5.67;;;2.40;99.90;;;;;;5070637;28;20980;-84
2022/03/09 06:59:23;;;;;;;6.97;4.80;;;2.50;99.90;;;;;;5071068;28;20244;-84
2022/03/09 07:01:49;;;;;;;7.07;4.37;;;2.70;99.90;;;;;;5070871;28;20529;-84
2022/03/09 07:04:14;;;;;;;8.53;5.60;;;2.80;99.90;;;;;;5070905;28;20202;-83
2022/03/09 07:06:40;;;;;;;8.50;5.80;;;2.90;99.90;;;;;;5070559;28;20554;-84
2022/03/09 07:09:06;;;;;;;9.40;6.00;;;2.90;99.90;;;;;;5070935;28;20180;-84
2022/03/09 07:11:31;;;;;;;9.57;5.70;;;3.10;99.90;;;;;;5072052;28;20186;-83
2022/03/09 07:13:57;;;;;;;9.57;4.90;;;3.10;99.90;;;;;;5070773;28;20213;-84
2022/03/09 07:16:23;;;;;;;7.83;5.53;;;3.20;99.90;;;;;;5070631;28;20185;-85
2022/03/09 07:18:49;;;;;;;9.17;5.37;;;3.30;99.90;;;;;;5071870;28;20564;-84
2022/03/09 07:21:14;;;;;;;11.23;5.83;;;3.40;99.90;;;;;;5070808;28;20417;-84
2022/03/09 07:23:40;;;;;;;9.10;5.50;;;3.50;99.90;;;;;;5070611;28;20710;-84
2022/03/09 07:26:06;;;;;;;10.10;5.37;;;3.50;99.90;;;;;;5070530;28;20640;-84
2022/03/09 07:28:31;;;;;;;7.30;4.90;;;3.60;99.90;;;;;;5070384;28;20730;-84
2022/03/09 07:30:58;;;;;;;7.60;5.47;;;3.70;99.90;;;;;;5074318;28;20230;-84
2022/03/09 07:33:24;;;;;;;8.17;5.43;;;3.80;99.90;;;;;;5074403;28;20669;-84
2022/03/09 07:35:50;;;;;;;8.43;6.20;;;3.90;99.90;;;;;;5075927;28;20399;-84
2022/03/09 07:38:16;;;;;;;8.87;5.20;;;4.00;99.90;;;;;;5074233;28;20301;-83
2022/03/09 07:40:42;;;;;;;11.93;6.07;;;4.10;99.90;;;;;;5074599;28;20182;-85
2022/03/09 07:43:08;;;;;;;6.93;4.93;;;4.20;99.90;;;;;;5074565;28;20273;-82
2022/03/09 07:45:34;;;;;;;8.77;6.10;;;4.30;99.90;;;;;;5074414;28;20943;-84
2022/03/09 07:47:59;;;;;;;9.60;5.13;;;4.40;99.90;;;;;;5074304;28;20182;-85
2022/03/09 07:50:25;;;;;;;8.73;5.90;;;4.50;99.90;;;;;;5074477;28;20741;-83
2022/03/09 07:52:50;;;;;;;8.77;5.90;;;4.60;99.90;;;;;;5074377;28;20251;-85
2022/03/09 07:55:16;;;;;;;8.37;5.93;;;4.70;99.90;;;;;;5074125;28;20263;-82
2022/03/09 07:57:42;;;;;;;7.37;5.10;;;4.80;99.90;;;;;;5073941;28;20230;-85
2022/03/09 08:00:08;;;;;;;8.03;5.40;;;4.90;99.90;;;;;;5074037;28;20220;-84
2022/03/09 08:02:34;;;;;;;9.63;5.83;;;4.90;99.90;;;;;;5074164;28;20206;-84
2022/03/09 08:05:00;;;;;;;6.60;4.90;;;5.00;99.90;;;;;;5073982;28;20447;-84
2022/03/09 08:07:25;;;;;;;8.40;5.13;;;5.10;99.90;;;;;;5075089;28;20975;-84
2022/03/09 08:09:51;;;;;;;10.40;6.27;;;5.20;99.90;;;;;;5075152;28;20674;-84
2022/03/09 08:12:17;;;;;;;10.87;5.87;;;5.20;99.90;;;;;;5073968;28;20682;-84
2022/03/09 08:14:42;;;;;;;8.10;5.30;;;5.40;99.90;;;;;;5073978;28;20291;-85
2022/03/09 08:17:08;;;;;;;10.90;7.07;;;5.50;99.90;;;;;;5073489;28;20186;-84
2022/03/09 08:19:34;;;;;;;9.60;5.87;;;5.60;99.90;;;;;;5073897;28;20263;-84
2022/03/09 08:22:00;;;;;;;8.83;5.70;;;5.70;99.10;;;;;;5073724;28;20185;-85
2022/03/09 08:24:27;;;;;;;8.30;5.40;;;5.80;99.20;;;;;;5073762;28;20872;-83
2022/03/09 08:26:53;;;;;;;8.40;5.20;;;5.90;98.30;;;;;;5073322;28;20186;-84
2022/03/09 08:29:18;;;;;;;12.67;6.00;;;6.00;98.10;;;;;;5073787;28;20421;-84
2022/03/09 08:31:44;;;;;;;8.60;5.70;;;6.10;97.70;;;;;;5073517;28;20421;-84
2022/03/09 08:34:10;;;;;;;7.03;5.30;;;6.10;97.80;;;;;;5069456;28;21241;-86
2022/03/09 08:36:35;;;;;;;7.67;6.10;;;6.20;97.20;;;;;;5052596;28;20564;-86
2022/03/09 08:39:01;;;;;;;8.23;5.97;;;6.30;96.80;;;;;;5052862;28;20242;-86
2022/03/09 08:41:28;;;;;;;10.93;6.50;;;6.30;96.00;;;;;;5053058;28;20183;-88
2022/03/09 08:43:54;;;;;;;9.30;6.73;;;6.40;95.80;;;;;;5066536;28;20545;-86
2022/03/09 08:46:20;;;;;;;12.27;8.10;;;6.50;96.00;;;;;;5059345;28;20529;-85
2022/03/09 08:48:45;;;;;;;11.77;7.10;;;6.50;95.20;;;;;;5069932;28;20195;-86
2022/03/09 08:51:17;;;;;;;13.10;7.93;;;6.60;95.30;;;;;;5054841;28;20534;-89
2022/03/09 08:53:43;;;;;;;9.53;7.03;;;6.70;94.40;;;;;;5057692;23;20232;-66
2022/03/09 08:56:10;;;;;;;12.93;7.90;;;6.80;94.00;;;;;;4978106;28;20977;-66
2022/03/09 08:58:36;;;;;;;13.07;8.40;;;6.90;95.20;;;;;;4992794;28;20472;-65
2022/03/09 09:01:03;;;;;;;13.13;8.03;;;7.00;94.30;;;;;;4993040;28;20415;-65
2022/03/09 09:03:28;;;;;;;10.50;7.30;;;7.10;94.50;;;;;;4993237;28;20426;-65
2022/03/09 09:05:54;;;;;;;13.53;8.20;;;7.20;94.90;;;;;;4992871;28;20444;-66
2022/03/09 09:08:20;;;;;;;12.13;7.93;;;7.40;93.90;;;;;;4992976;28;20188;-65
2022/03/09 09:10:46;;;;;;;11.57;7.00;;;7.60;92.80;;;;;;4992876;28;20267;-65
2022/03/09 09:13:12;;;;;;;8.70;7.23;;;7.70;92.60;;;;;;4992955;28;20523;-65
2022/03/09 09:15:38;;;;;;;10.57;7.30;;;7.70;92.40;;;;;;4992772;28;20999;-65
2022/03/09 09:18:06;;;;;;;9.90;7.10;;;7.80;92.20;;;;;;4992642;28;20185;-66
2022/03/09 09:20:33;;;;;;;9.63;6.73;;;7.90;91.70;;;;;;4992739;28;20416;-66
2022/03/09 09:22:59;;;;;;;10.30;7.13;;;8.10;90.70;;;;;;4992738;28;20424;-65
2022/03/09 09:25:27;;;;;;;13.20;7.40;;;8.20;91.30;;;;;;4992709;28;20460;-65
2022/03/09 09:27:55;;;;;;;13.90;6.70;;;8.30;89.60;;;;;;4992286;28;20299;-65
2022/03/09 09:30:22;;;;;;;11.80;8.03;;;8.40;88.90;;;;;;4992649;28;20560;-65
2022/03/09 09:32:48;;;;;;;10.90;7.70;;;8.40;90.20;;;;;;4991651;28;20417;-65
2022/03/09 09:35:15;;;;;;;11.37;7.57;;;8.60;89.20;;;;;;5010681;23;20461;-81
2022/03/09 09:37:42;;;;;;;7.77;6.60;;;8.70;90.00;;;;;;5072211;28;20892;-81
2022/03/09 09:40:09;;;;;;;11.77;7.10;;;8.90;87.80;;;;;;5073147;28;20478;-81
2022/03/09 09:42:35;;;;;;;15.80;8.17;;;9.00;86.60;;;;;;5073390;28;20915;-82
2022/03/09 09:45:01;;;;;;;9.27;7.50;;;9.10;87.50;;;;;;5073125;28;20437;-81
2022/03/09 09:47:27;;;;;;;10.40;6.77;;;9.20;84.70;;;;;;5055179;28;20410;-81
2022/03/09 09:49:55;;;;;;;10.60;7.53;;;9.30;84.90;;;;;;5055624;28;20435;-82
2022/03/09 09:52:24;;;;;;;11.13;7.53;;;9.50;85.20;;;;;;5054863;28;20436;-81
2022/03/09 09:54:52;;;;;;;11.93;7.40;;;9.60;84.70;;;;;;5073059;28;20424;-81
2022/03/09 09:57:17;;;;;;;13.20;7.63;;;9.80;85.10;;;;;;5054667;28;20428;-81
2022/03/09 09:59:44;;;;;;;11.10;7.00;;;10.00;81.40;;;;;;5072773;28;20457;-81
2022/03/09 10:02:10;;;;;;;12.67;7.60;;;10.10;79.00;;;;;;5072913;28;20538;-82
2022/03/09 10:04:38;;;;;;;12.63;8.23;;;10.30;78.90;;;;;;5071157;28;20417;-81
2022/03/09 10:07:03;;;;;;;10.70;6.70;;;10.40;76.40;;;;;;5065569;28;20434;-81
2022/03/09 10:09:36;;;;;;;15.40;8.00;;;10.50;75.30;;;;;;5072761;28;20418;-82
2022/03/09 10:12:04;;;;;;;11.00;7.20;;;10.70;74.20;;;;;;5072351;28;20181;-82
2022/03/09 10:14:50;;;;;;;12.10;7.90;;;11.00;73.20;;;;;;5072768;28;20454;-82
2022/03/09 10:17:20;;;;;;;13.80;8.03;;;12.60;70.50;;;;;;5072627;28;20420;-82
2022/03/09 10:19:50;;;;;;;8.13;7.00;;;15.50;64.70;;;;;;5055057;28;20874;-82
2022/03/09 10:22:34;;;;;;;11.40;8.30;;;18.10;52.10;;;;;;5054850;28;20429;-82
2022/03/09 10:25:22;;;;;;;10.27;7.70;;;19.90;47.00;;;;;;5072943;28;20401;-82
2022/03/09 10:27:53;;;;;;;11.93;8.40;;;22.10;40.80;;;;;;5054795;28;20731;-83
2022/03/09 10:30:24;;;;;;;8.57;7.47;;;23.80;36.90;;;;;;5072953;28;20456;-82
2022/03/09 10:32:52;;;;;;;10.50;8.00;;;25.20;33.50;;;;;;5054978;28;20420;-83
2022/03/09 10:35:42;;;;;;;12.53;8.03;;;26.50;30.50;;;;;;5072572;28;20437;-83
2022/03/09 10:38:19;;;;;;;11.33;7.93;;;26.70;28.40;;;;;;5059790;28;20912;-83
2022/03/09 10:40:48;;;;;;;11.93;8.30;;;26.70;27.60;;;;;;5072246;28;20789;-83
2022/03/09 10:43:25;;;;;;;9.13;7.70;;;27.70;27.50;;;;;;5072688;28;20505;-83
2022/03/09 10:46:11;;;;;;;10.10;8.70;;;28.10;26.90;;;;;;5049043;28;21015;-84
2022/03/09 10:49:00;;;;;;;10.37;8.83;;;28.60;25.80;;;;;;5062982;28;20425;-85
2022/03/09 10:51:53;;;;;;;10.00;8.30;;;28.70;25.00;;;;;;5061924;28;20451;-84
2022/03/09 10:54:25;;;;;;;8.87;7.97;;;29.60;24.50;;;;;;5033930;28;20426;-85
2022/03/09 10:57:12;;;;;;;10.60;8.17;;;29.30;23.50;;;;;;5063193;28;20445;-84
2022/03/09 11:00:04;;;;;;;11.23;7.43;;;;;;;;;;5059925;28;20511;-85
2022/03/09 11:02:33;;;;;;;11.17;9.03;;;30.70;22.70;;;;;;5035413;28;20414;-84
2022/03/09 11:05:12;;;;;;;11.27;9.27;;;31.20;23.00;;;;;;5052547;28;20429;-84
2022/03/09 11:07:38;;;;;;;10.43;8.73;;;31.40;21.50;;;;;;5040713;28;20916;-82
2022/03/09 11:10:09;;;;;;;10.37;9.37;;;30.70;21.90;;;;;;5051054;28;20420;-84
2022/03/09 11:12:36;;;;;;;11.17;8.70;;;30.80;21.80;;;;;;5033450;28;20509;-85
2022/03/09 11:15:02;;;;;;;10.10;8.80;;;30.30;22.10;;;;;;5033613;28;20426;-84
2022/03/09 11:17:28;;;;;;;11.87;9.70;;;29.90;22.10;;;;;;5033738;28;20422;-82
2022/03/09 11:19:54;;;;;;;11.30;9.60;;;29.50;22.10;;;;;;5033503;28;20477;-81
2022/03/09 11:22:19;;;;;;;12.33;9.53;;;29.50;22.30;;;;;;5034756;28;20457;-82
2022/03/09 11:24:45;;;;;;;11.27;9.47;;;29.90;22.20;;;;;;5051730;28;20171;-81
2022/03/09 11:27:11;;;;;;;10.00;8.73;;;30.60;22.40;;;;;;5051672;28;20195;-82
2022/03/09 11:29:39;;;;;;;11.93;9.27;;;32.90;21.40;;;;;;5052049;28;20176;-81
2022/03/09 11:32:11;;;;;;;12.70;9.90;;;32.90;21.60;;;;;;5052038;28;20414;-82
2022/03/09 11:34:42;;;;;;;10.60;9.27;;;32.30;20.50;;;;;;5052175;28;20764;-80
2022/03/09 11:37:14;;;;;;;12.00;9.50;;;31.30;20.40;;;;;;5051375;28;20454;-81
2022/03/09 11:39:43;;;;;;;10.83;9.73;;;30.20;20.90;;;;;;5033717;28;20507;-80
2022/03/09 11:42:21;;;;;;;10.90;9.80;;;30.00;21.40;;;;;;5033800;28;20419;-81
2022/03/09 11:45:14;;;;;;;9.77;8.60;;;29.80;21.30;;;;;;5051689;28;20462;-81
2022/03/09 11:48:18;;;;;;;13.37;9.60;;;29.10;21.10;;;;;;5033928;28;20423;-81
2022/03/09 11:50:46;;;;;;;10.50;9.20;;;29.00;21.30;;;;;;5051687;28;20402;-81
2022/03/09 11:53:13;;;;;;;12.30;9.40;;;28.80;21.00;;;;;;5051599;28;20442;-81
2022/03/09 11:55:39;;;;;;;14.23;9.50;;;28.60;21.30;;;;;;5033449;28;20870;-79
2022/03/09 11:58:14;;;;;;;12.40;9.40;;;28.40;21.10;;;;;;5033490;28;20422;-81
2022/03/09 12:00:59;;;;;;;11.10;9.63;;;28.90;21.70;;;;;;5051673;28;20167;-80
2022/03/09 12:03:38;;;;;;;12.40;10.00;;;29.30;21.90;;;;;;5051552;28;20391;-81
2022/03/09 12:06:04;;;;;;;13.00;10.87;;;28.70;21.10;;;;;;5051140;28;20480;-81
2022/03/09 12:08:50;;;;;;;12.80;9.90;;;29.00;21.50;;;;;;5033883;28;20813;-81
2022/03/09 12:11:18;;;;;;;10.40;9.30;;;29.10;21.40;;;;;;5050874;28;20227;-81
2022/03/09 12:13:44;;;;;;;12.67;10.20;;;28.50;22.10;;;;;;5051424;28;20972;-81
2022/03/09 12:16:17;;;;;;;10.00;9.00;;;26.70;21.60;;;;;;5051824;28;20948;-80
2022/03/09 12:18:46;;;;;;;12.60;9.37;;;26.20;22.20;;;;;;5037516;28;20460;-81
2022/03/09 12:21:14;;;;;;;13.47;10.47;;;25.70;22.50;;;;;;5055212;28;20491;-81
2022/03/09 12:24:04;;;;;;;14.07;9.60;;;24.90;22.90;;;;;;5055264;28;20414;-80
2022/03/09 12:26:44;;;;;;;14.57;10.10;;;23.40;23.10;;;;;;5054648;28;20509;-80
2022/03/09 12:29:24;;;;;;;11.50;9.30;;;23.80;23.90;;;;;;5037126;28;20429;-81
2022/03/09 12:31:59;;;;;;;14.10;9.83;;;24.20;23.70;;;;;;5055264;28;20409;-80
2022/03/09 12:34:27;;;;;;;11.87;9.93;;;23.50;23.40;;;;;;5037041;28;20952;-81
2022/03/09 12:36:53;;;;;;;12.23;9.67;;;23.70;23.80;;;;;;5036892;28;20457;-81
2022/03/09 12:39:19;;;;;;;14.70;10.23;;;24.90;24.50;;;;;;5057951;28;20480;-82
2022/03/09 12:41:51;;;;;;;13.23;10.13;;;25.80;23.60;;;;;;5055627;28;20171;-81
2022/03/09 12:44:19;;;;;;;13.67;10.53;;;25.30;23.20;;;;;;5054845;28;20612;-81
2022/03/09 12:46:47;;;;;;;11.70;10.00;;;25.30;23.60;;;;;;5054235;28;20976;-81
2022/03/09 12:49:22;;;;;;;11.77;9.90;;;26.60;23.50;;;;;;5036881;28;20814;-82
2022/03/09 12:51:50;;;;;;;11.50;9.70;;;27.90;22.90;;;;;;5054629;28;20421;-81